Time;durP1;ratioP1;P1;durP2;ratioP2;P2;SDS_P1;SDS_P2;PMS_P1;PMS_P2;Temp;Humidity;BMP_temperature;BMP_pressure;BME280_temperature;BME280_humidity;BME280_pressure;Samples;Min_cycle;Max_cycle;Signal;HPM_P1;HPM_P2
2023/06/04 00:01:13;;;;;;;3.80;3.53;;;;;;;21.45;70.39;99591.53;5031345;28;20189;-64
2023/06/04 00:03:45;;;;;;;2.97;2.77;;;;;;;21.53;69.42;99593.75;5043497;28;20221;-65
2023/06/04 00:06:18;;;;;;;3.70;3.37;;;;;;;21.47;67.90;99596.69;5032803;28;20208;-65
2023/06/04 00:09:03;;;;;;;4.27;3.43;;;;;;;21.42;68.20;99593.94;5032683;28;20225;-65
2023/06/04 00:11:41;;;;;;;4.07;3.67;;;;;;;21.40;68.32;99591.50;5032353;28;20205;-66
2023/06/04 00:14:29;;;;;;;8.17;4.30;;;;;;;21.40;69.65;99586.09;5045355;28;20192;-66
2023/06/04 00:17:06;;;;;;;3.37;3.20;;;;;;;21.33;67.37;99593.66;5053103;28;20204;-68
2023/06/04 00:19:35;;;;;;;4.10;3.47;;;;;;;21.34;68.83;99591.75;5053081;28;20226;-68
2023/06/04 00:22:08;;;;;;;3.50;3.10;;;;;;;21.40;67.01;99596.91;5050902;28;20228;-67
2023/06/04 00:27:22;;;;;;;4.20;2.97;;;;;;;21.46;66.85;99595.03;5052299;28;20192;-66
2023/06/04 00:29:51;;;;;;;3.50;3.20;;;;;;;21.21;67.13;99555.22;5052163;28;20573;-66
2023/06/04 00:32:23;;;;;;;3.43;3.23;;;;;;;21.38;66.10;99599.06;5050840;28;20197;-66
2023/06/04 00:34:52;;;;;;;3.60;3.30;;;;;;;21.36;66.87;99597.72;5051980;28;20193;-66
2023/06/04 00:37:21;;;;;;;3.60;3.33;;;;;;;21.25;66.78;99601.44;5052241;28;20259;-64
2023/06/04 00:39:49;;;;;;;3.33;3.17;;;;;;;21.20;67.98;99594.13;5052772;28;20288;-65
2023/06/04 00:42:17;;;;;;;3.83;3.53;;;;;;;21.23;68.66;99601.69;5052010;28;20246;-66
2023/06/04 00:44:45;;;;;;;3.87;3.57;;;;;;;21.24;67.80;99591.72;5051347;28;20200;-66
2023/06/04 00:47:14;;;;;;;3.50;3.30;;;;;;;21.33;68.08;99595.53;5031945;28;20586;-66
2023/06/04 00:49:43;;;;;;;3.90;3.60;;;;;;;21.42;68.05;99594.78;5032224;28;20205;-65
2023/06/04 00:52:20;;;;;;;4.50;3.57;;;;;;;21.44;67.68;99605.31;5030986;28;20638;-66
2023/06/04 00:54:56;;;;;;;4.43;3.90;;;;;;;21.51;67.52;99604.00;5045650;28;20246;-67
2023/06/04 01:03:11;;;;;;;4.03;3.60;;;;;;;21.57;66.59;99607.53;5051051;28;20716;-66
2023/06/04 01:05:53;;;;;;;4.57;3.67;;;;;;;21.55;66.85;99601.59;5026575;28;20189;-66
2023/06/04 01:11:16;;;;;;;3.70;3.40;;;;;;;21.52;67.29;99605.63;5031760;28;20717;-65
2023/06/04 01:13:49;;;;;;;4.00;3.70;;;;;;;21.53;67.44;99618.06;5030038;28;20250;-66
2023/06/04 01:16:50;;;;;;;3.73;3.43;;;;;;;21.44;67.90;99614.22;5039197;28;20588;-66
2023/06/04 01:23:27;;;;;;;3.40;3.20;;;;;;;21.47;68.38;99613.72;5041334;28;20224;-65
2023/06/04 01:26:02;;;;;;;4.00;3.70;;;;;;;21.56;68.28;99617.53;5051585;28;20781;-66
2023/06/04 01:28:48;;;;;;;6.73;4.00;;;;;;;21.56;67.85;99617.53;5043361;28;20223;-66
2023/06/04 01:34:15;;;;;;;3.63;3.43;;;;;;;21.60;67.71;99618.63;5031865;28;20201;-64
2023/06/04 01:36:43;;;;;;;4.90;3.77;;;;;;;21.65;67.86;99618.66;5015090;28;20193;-67
2023/06/04 01:39:12;;;;;;;4.40;3.97;;;;;;;21.71;67.31;99617.63;5035658;28;20237;-68
2023/06/04 01:41:40;;;;;;;4.73;3.70;;;;;;;21.65;67.54;99618.66;5033874;28;20194;-66
2023/06/04 01:44:07;;;;;;;4.20;3.83;;;;;;;21.61;68.14;99614.88;5034449;28;20279;-66
2023/06/04 01:46:45;;;;;;;4.20;3.90;;;;;;;21.61;67.72;99604.06;5037438;28;20208;-66
2023/06/04 01:49:15;;;;;;;4.23;3.90;;;;;;;21.64;67.71;99610.81;5035442;28;20204;-66
2023/06/04 01:51:52;;;;;;;4.47;4.03;;;;;;;21.66;67.71;99611.34;5038578;28;20193;-66
2023/06/04 01:54:20;;;;;;;4.87;4.20;;;;;;;21.67;67.40;99616.50;5055424;28;20211;-65
2023/06/04 01:56:49;;;;;;;4.37;4.07;;;;;;;21.67;67.67;99612.97;5055340;28;20204;-65
2023/06/04 01:59:16;;;;;;;4.30;4.00;;;;;;;21.65;67.80;99610.56;5020181;28;20200;-65
2023/06/04 02:01:43;;;;;;;4.93;4.00;;;;;;;21.68;67.89;99615.41;5036894;28;20228;-65
2023/06/04 02:04:10;;;;;;;4.73;4.20;;;;;;;21.66;67.57;99625.69;5033731;28;20697;-65
2023/06/04 02:06:37;;;;;;;4.50;4.20;;;;;;;21.59;67.71;99610.78;5034893;28;20201;-65
2023/06/04 02:09:07;;;;;;;3.47;3.27;;;;;;;21.68;67.91;99631.63;5043818;28;20197;-66
2023/06/04 02:11:43;;;;;;;3.90;3.60;;;;;;;21.73;67.95;99630.88;5053909;28;20199;-66
2023/06/04 02:14:11;;;;;;;3.87;3.57;;;;;;;21.67;67.76;99616.50;5055028;28;20271;-65
2023/06/04 02:19:37;;;;;;;3.63;3.43;;;;;;;21.73;68.08;99637.13;5045502;28;20611;-66
2023/06/04 02:22:10;;;;;;;4.00;3.70;;;;;;;21.72;68.38;99632.78;5034962;28;20197;-66
2023/06/04 02:30:22;;;;;;;4.13;3.70;;;;;;;21.51;70.18;99644.53;5034882;28;20208;-66
2023/06/04 02:32:57;;;;;;;4.37;3.97;;;;;;;21.40;69.79;99640.16;5050935;28;20766;-66
2023/06/04 02:35:36;;;;;;;4.43;4.07;;;;;;;21.28;70.70;99639.56;5053296;28;20668;-66
2023/06/04 02:38:05;;;;;;;5.67;3.63;;;;;;;21.17;71.15;99645.16;5054180;28;20720;-67
2023/06/04 02:40:48;;;;;;;5.30;4.13;;;;;;;21.01;71.41;99641.53;5054246;28;20592;-66
2023/06/04 02:46:19;;;;;;;4.63;4.23;;;;;;;20.84;72.55;99640.03;5035232;28;20198;-66
2023/06/04 02:48:59;;;;;;;4.07;3.77;;;;;;;20.94;72.32;99645.56;5032313;28;20197;-66
2023/06/04 02:51:41;;;;;;;4.73;4.23;;;;;;;20.92;72.14;99632.31;5034519;28;20186;-66
2023/06/04 02:54:16;;;;;;;7.00;4.20;;;;;;;21.02;72.91;99648.56;5033006;28;20295;-67
2023/06/04 02:57:00;;;;;;;6.90;4.40;;;;;;;21.08;72.01;99647.53;5047956;28;20196;-68
2023/06/04 02:59:33;;;;;;;4.17;3.87;;;;;;;21.12;71.92;99659.47;5054450;28;20204;-66
2023/06/04 03:02:01;;;;;;;4.20;3.90;;;;;;;21.15;71.17;99660.81;5052909;28;20192;-67
2023/06/04 03:04:34;;;;;;;4.70;4.07;;;;;;;21.19;71.34;99665.44;5048756;28;20217;-66
2023/06/04 03:09:56;;;;;;;4.33;4.03;;;;;;;21.38;70.84;99669.34;5053331;28;20282;-66
2023/06/04 03:12:34;;;;;;;5.03;4.70;;;;;;;21.43;70.28;99672.06;5053094;28;20277;-66
2023/06/04 03:15:03;;;;;;;4.53;4.13;;;;;;;21.53;70.29;99676.72;5036334;28;20254;-66
2023/06/04 03:17:41;;;;;;;4.13;3.83;;;;;;;21.58;69.31;99680.28;5053829;28;20204;-66
2023/06/04 03:20:10;;;;;;;5.23;4.07;;;;;;;21.60;68.49;99678.09;5043242;28;20197;-66
2023/06/04 03:22:37;;;;;;;4.40;4.10;;;;;;;21.64;68.51;99684.63;5032081;28;20221;-66
2023/06/04 03:25:05;;;;;;;4.30;3.90;;;;;;;21.63;68.38;99683.00;5033614;28;20197;-67
2023/06/04 03:27:37;;;;;;;4.07;3.87;;;;;;;21.69;68.13;99690.06;5033958;28;20251;-66
2023/06/04 03:30:08;;;;;;;6.07;4.30;;;;;;;21.68;68.49;99691.13;5040434;28;20196;-66
2023/06/04 03:32:35;;;;;;;4.70;4.30;;;;;;;21.74;68.99;99695.53;5053853;28;20208;-67
2023/06/04 03:35:03;;;;;;;5.40;4.60;;;;;;;21.79;67.81;99690.13;5053758;28;20197;-68
2023/06/04 03:37:34;;;;;;;5.17;4.73;;;;;;;21.69;67.59;99698.19;5053367;28;20228;-66
2023/06/04 03:40:03;;;;;;;4.70;4.30;;;;;;;21.62;68.40;99705.72;5053728;28;20224;-66
2023/06/04 03:42:32;;;;;;;5.80;4.30;;;;;;;21.66;69.15;99698.69;5044618;28;20708;-66
2023/06/04 03:45:01;;;;;;;4.80;4.40;;;;;;;21.66;69.22;99704.09;5033358;28;20201;-67
2023/06/04 03:47:28;;;;;;;4.63;4.30;;;;;;;21.71;68.59;99706.88;5033227;28;20197;-66
2023/06/04 03:49:58;;;;;;;7.87;4.97;;;;;;;21.68;69.38;99698.44;5033056;28;20594;-65
2023/06/04 03:52:26;;;;;;;5.70;5.20;;;;;;;21.66;70.14;99697.88;5036859;28;20558;-66
2023/06/04 03:54:53;;;;;;;6.70;4.93;;;;;;;21.51;70.93;99687.00;5033107;28;20193;-66
2023/06/04 03:57:28;;;;;;;6.20;5.60;;;;;;;21.65;70.95;99704.38;5064565;28;20204;-65
2023/06/04 03:59:58;;;;;;;5.83;4.90;;;;;;;21.65;71.11;99707.91;5030718;28;20193;-66
2023/06/04 04:02:26;;;;;;;5.70;4.50;;;;;;;21.67;71.34;99699.50;5032575;28;20201;-66
2023/06/04 04:04:57;;;;;;;6.13;5.60;;;;;;;21.70;71.60;99709.78;5032266;28;20311;-66
2023/06/04 04:07:31;;;;;;;5.30;4.80;;;;;;;21.71;71.96;99712.28;5032848;28;20240;-66
2023/06/04 04:10:02;;;;;;;6.03;5.27;;;;;;;21.57;72.89;99708.41;5029846;28;20201;-67
2023/06/04 04:12:31;;;;;;;7.27;6.00;;;;;;;21.42;74.17;99713.69;5030739;28;20222;-67
2023/06/04 04:15:11;;;;;;;7.00;5.93;;;;;;;21.23;75.43;99717.09;5031097;28;20200;-67
2023/06/04 04:17:47;;;;;;;6.10;5.60;;;;;;;21.02;76.33;99716.09;5031249;28;20280;-67
2023/06/04 04:20:18;;;;;;;6.73;6.20;;;;;;;20.85;77.87;99720.78;5061964;28;20197;-66
2023/06/04 04:22:59;;;;;;;6.07;5.67;;;;;;;20.77;78.17;99715.84;5030140;28;20204;-66
2023/06/04 04:25:32;;;;;;;10.70;6.60;;;;;;;20.70;79.09;99714.44;5031151;28;20192;-67
2023/06/04 04:28:02;;;;;;;6.40;5.87;;;;;;;20.71;80.23;99716.91;5032256;28;20194;-67
2023/06/04 04:30:34;;;;;;;6.53;5.90;;;;;;;20.77;79.72;99729.34;5029695;28;20193;-67
2023/06/04 04:33:06;;;;;;;6.70;6.17;;;;;;;20.57;79.33;99680.56;5032369;28;20229;-67
2023/06/04 04:35:35;;;;;;;6.77;6.10;;;;;;;20.84;78.14;99727.28;5032316;28;20216;-67
2023/06/04 04:38:17;;;;;;;6.50;5.90;;;;;;;20.72;78.77;99726.63;5031909;28;20229;-67
2023/06/04 04:40:48;;;;;;;6.87;6.00;;;;;;;20.68;78.71;99730.91;5062330;28;20193;-66
2023/06/04 04:43:18;;;;;;;7.13;5.40;;;;;;;20.67;78.83;99738.16;5030351;28;20217;-67
2023/06/04 04:45:54;;;;;;;8.53;6.40;;;;;;;20.66;78.56;99734.91;5029759;28;20189;-66
2023/06/04 04:48:25;;;;;;;7.10;6.33;;;;;;;20.67;78.30;99740.06;5031798;28;20193;-67
2023/06/04 04:53:42;;;;;;;6.70;6.20;;;;;;;20.84;77.56;99732.66;5031565;28;20235;-67
2023/06/04 04:56:20;;;;;;;8.67;5.80;;;;;;;20.80;77.81;99742.34;5031693;28;20186;-66
2023/06/04 04:58:55;;;;;;;5.83;5.23;;;;;;;20.92;77.32;99743.03;5031714;28;20248;-65
2023/06/04 05:01:28;;;;;;;6.57;5.73;;;;;;;21.03;75.97;99752.03;5029762;28;20251;-66
2023/06/04 05:06:51;;;;;;;6.20;5.60;;;;;;;21.29;74.00;99743.88;5030733;28;20649;-66
2023/06/04 05:12:31;;;;;;;6.10;5.60;;;;;;;21.69;71.98;99768.50;5044752;28;20285;-68
2023/06/04 05:15:03;;;;;;;6.17;5.40;;;;;;;21.76;72.72;99768.28;5050939;28;20254;-66
2023/06/04 05:17:35;;;;;;;7.10;4.50;;;;;;;22.08;74.02;99767.09;5051922;28;20668;-65
2023/06/04 05:20:17;;;;;;;8.03;5.17;;;;;;;22.59;70.96;99768.13;5047143;28;20224;-66
2023/06/04 05:25:40;;;;;;;5.30;4.80;;;;;;;22.95;69.95;99770.63;5051830;28;20200;-65
2023/06/04 05:28:16;;;;;;;9.07;5.10;;;;;;;23.41;68.04;99780.44;5036947;28;20212;-65
2023/06/04 05:30:48;;;;;;;6.10;4.93;;;;;;;23.65;69.20;99776.06;5031381;28;20192;-66
2023/06/04 05:33:20;;;;;;;7.83;6.53;;;;;;;23.94;66.50;99787.16;5040301;28;20229;-66
2023/06/04 05:35:51;;;;;;;10.67;6.67;;;;;;;23.92;66.42;99787.44;5030356;28;20203;-66
2023/06/04 05:38:27;;;;;;;5.97;5.47;;;;;;;24.17;63.82;99802.81;5030892;28;20236;-67
2023/06/04 05:40:56;;;;;;;11.70;4.87;;;;;;;24.29;65.87;99796.00;5031239;28;20281;-67
2023/06/04 05:43:24;;;;;;;6.67;4.50;;;;;;;24.55;63.70;99807.56;5031248;28;20274;-67
2023/06/04 05:45:53;;;;;;;9.57;4.70;;;;;;;24.70;62.82;99796.63;5031245;28;20687;-66
2023/06/04 05:48:26;;;;;;;5.83;5.30;;;;;;;24.81;60.21;99804.47;5029776;28;20227;-67
2023/06/04 05:50:56;;;;;;;6.70;5.27;;;;;;;24.95;59.78;99820.97;5044218;28;20203;-66
2023/06/04 05:53:26;;;;;;;5.97;5.37;;;;;;;24.79;60.42;99825.66;5051280;28;20192;-67
2023/06/04 05:55:59;;;;;;;5.23;4.80;;;;;;;24.77;60.35;99825.13;5051562;28;20570;-66
2023/06/04 05:58:32;;;;;;;6.13;5.33;;;;;;;24.61;60.23;99823.59;5043381;28;20185;-66
2023/06/04 06:01:21;;;;;;;5.43;5.13;;;;;;;24.54;60.49;99831.19;5031681;28;20271;-67
2023/06/04 06:03:58;;;;;;;5.13;4.60;;;;;;;24.45;61.74;99822.00;5031299;28;20227;-66
2023/06/04 06:06:35;;;;;;;7.97;4.90;;;;;;;24.55;62.43;99830.09;5043208;28;20200;-65
2023/06/04 06:09:13;;;;;;;8.63;4.70;;;;;;;24.69;62.31;99833.88;5036395;28;20198;-65
2023/06/04 06:11:42;;;;;;;7.13;5.23;;;;;;;24.71;60.33;99836.31;5049898;28;20210;-65
2023/06/04 06:14:09;;;;;;;5.60;5.27;;;;;;;24.61;61.01;99836.34;5051279;28;20206;-66
2023/06/04 06:16:37;;;;;;;5.90;5.37;;;;;;;24.60;61.21;99830.13;5044263;28;20196;-66
2023/06/04 06:19:05;;;;;;;7.30;6.13;;;;;;;24.71;61.23;99841.75;5031058;28;20200;-67
2023/06/04 06:21:38;;;;;;;7.20;5.60;;;;;;;24.76;60.51;99845.25;5031011;28;20200;-66
2023/06/04 06:24:11;;;;;;;9.10;5.73;;;;;;;24.66;60.43;99849.91;5033145;28;20225;-66
2023/06/04 06:26:40;;;;;;;6.57;5.83;;;;;;;24.60;60.88;99846.44;5052348;28;20192;-65
2023/06/04 06:29:09;;;;;;;6.53;5.93;;;;;;;24.58;59.85;99848.56;5052884;28;20195;-65
2023/06/04 06:31:36;;;;;;;5.57;5.10;;;;;;;24.43;60.61;99845.09;5051953;28;20192;-67
2023/06/04 06:34:13;;;;;;;6.77;5.60;;;;;;;24.51;60.53;99853.47;5053171;28;20238;-67
2023/06/04 06:36:48;;;;;;;5.50;5.10;;;;;;;24.57;60.46;99840.69;5054032;28;20202;-65
2023/06/04 06:39:25;;;;;;;6.30;5.50;;;;;;;24.69;60.52;99842.03;5039249;28;20233;-67
2023/06/04 06:42:02;;;;;;;7.40;5.40;;;;;;;24.88;59.66;99848.44;5049007;28;20233;-66
2023/06/04 06:44:34;;;;;;;6.20;5.80;;;;;;;24.96;59.16;99856.00;5053911;28;20692;-66
2023/06/04 06:47:02;;;;;;;5.87;5.43;;;;;;;24.99;58.81;99865.50;5054470;28;20185;-68
2023/06/04 06:49:29;;;;;;;8.10;5.33;;;;;;;25.12;58.76;99858.63;5052798;28;20254;-66
2023/06/04 06:51:59;;;;;;;8.10;5.40;;;;;;;25.22;57.90;99859.38;5037380;28;20204;-67
2023/06/04 06:54:26;;;;;;;5.33;5.03;;;;;;;25.32;58.01;99863.97;5034116;28;20208;-66
2023/06/04 06:56:54;;;;;;;11.07;5.73;;;;;;;25.08;58.22;99856.47;5033811;28;20740;-66
2023/06/04 06:59:23;;;;;;;5.60;5.20;;;;;;;24.88;59.45;99864.75;5033764;28;20204;-68
2023/06/04 07:01:50;;;;;;;6.60;5.30;;;;;;;24.98;59.31;99853.81;5046383;28;20209;-67
2023/06/04 07:04:20;;;;;;;5.73;5.13;;;;;;;25.23;58.80;99860.19;5050073;28;20228;-66
2023/06/04 07:06:49;;;;;;;5.47;5.00;;;;;;;25.26;58.62;99860.44;5064846;28;20216;-67
2023/06/04 07:09:18;;;;;;;5.87;4.50;;;;;;;25.27;57.38;99866.69;5033400;28;20204;-66
2023/06/04 07:11:50;;;;;;;7.47;5.30;;;;;;;25.08;59.25;99853.75;5077274;28;20742;-66
2023/06/04 07:14:19;;;;;;;8.53;4.80;;;;;;;25.14;59.01;99870.06;5052381;28;20207;-68
2023/06/04 07:17:03;;;;;;;8.23;5.50;;;;;;;25.33;59.20;99877.28;5053525;28;20266;-66
2023/06/04 07:19:30;;;;;;;6.13;5.70;;;;;;;25.15;58.96;99875.19;5051308;28;20204;-67
2023/06/04 07:21:57;;;;;;;7.87;5.67;;;;;;;24.93;59.78;99878.31;5037862;28;20213;-67
2023/06/04 07:24:29;;;;;;;5.73;5.30;;;;;;;24.89;61.06;99881.88;5032887;28;20228;-67
2023/06/04 07:26:56;;;;;;;6.47;5.87;;;;;;;24.26;62.78;99871.78;5033697;28;20189;-67
2023/06/04 07:29:23;;;;;;;7.43;6.00;;;;;;;24.07;63.69;99862.56;5038733;28;20222;-70
2023/06/04 07:31:50;;;;;;;7.20;6.60;;;;;;;24.05;64.26;99878.34;5030794;28;20205;-68
2023/06/04 07:34:25;;;;;;;8.40;6.30;;;;;;;24.18;64.00;99872.34;5038357;28;20200;-69
2023/06/04 07:36:53;;;;;;;6.97;6.17;;;;;;;24.22;63.75;99876.91;5029507;28;20224;-65
2023/06/04 07:39:23;;;;;;;6.80;6.20;;;;;;;23.98;64.33;99881.31;5032374;28;20232;-67
2023/06/04 07:41:52;;;;;;;8.80;6.60;;;;;;;24.05;64.53;99879.13;5031247;28;21336;-64
2023/06/04 07:44:22;;;;;;;6.93;6.53;;;;;;;24.13;64.48;99878.56;5032286;28;20224;-66
2023/06/04 07:46:49;;;;;;;6.90;6.20;;;;;;;24.24;64.24;99880.19;5031584;28;20280;-64
2023/06/04 07:49:18;;;;;;;6.30;5.80;;;;;;;24.15;64.38;99881.84;5033150;28;20234;-66
2023/06/04 07:51:46;;;;;;;6.03;5.60;;;;;;;24.19;64.81;99887.53;5032968;28;20202;-66
2023/06/04 07:54:14;;;;;;;6.97;5.43;;;;;;;24.27;64.57;99885.09;5038624;28;20678;-66
2023/06/04 07:56:45;;;;;;;5.87;5.27;;;;;;;24.32;64.77;99886.94;5051476;28;20225;-63
2023/06/04 07:59:14;;;;;;;6.20;5.80;;;;;;;24.29;65.16;99887.50;5045452;28;20580;-67
2023/06/04 08:01:40;;;;;;;6.50;5.23;;;;;;;24.24;65.01;99885.63;5036328;28;20196;-66
2023/06/04 08:04:07;;;;;;;6.43;5.87;;;;;;;24.19;65.57;99876.66;5082449;28;20706;-66
2023/06/04 08:06:35;;;;;;;6.37;5.37;;;;;;;24.11;66.33;99886.19;5032765;28;20734;-66
2023/06/04 08:09:04;;;;;;;6.70;6.10;;;;;;;24.12;66.27;99893.25;5033005;28;20193;-67
2023/06/04 08:11:31;;;;;;;7.57;5.97;;;;;;;24.03;65.89;99886.75;5035599;28;20202;-68
2023/06/04 08:13:58;;;;;;;6.67;6.17;;;;;;;23.90;67.24;99876.44;5052468;28;20214;-66
2023/06/04 08:16:26;;;;;;;6.47;6.03;;;;;;;24.04;67.08;99896.53;5043590;28;20261;-68
2023/06/04 08:18:52;;;;;;;7.33;6.50;;;;;;;24.09;66.63;99888.34;5032124;28;20253;-68
2023/06/04 08:21:29;;;;;;;7.30;6.73;;;;;;;24.10;67.13;99878.31;5028097;28;20207;-67
2023/06/04 08:23:59;;;;;;;8.93;6.40;;;;;;;24.15;66.86;99887.28;5032331;28;20246;-67
2023/06/04 08:26:26;;;;;;;6.77;6.27;;;;;;;24.17;67.02;99885.09;5032258;28;20283;-67
2023/06/04 08:28:55;;;;;;;6.40;5.77;;;;;;;24.11;66.05;99901.66;5032388;28;20215;-68
2023/06/04 08:31:22;;;;;;;6.00;5.57;;;;;;;24.18;66.04;99892.13;5044678;28;20203;-66
2023/06/04 08:33:51;;;;;;;6.23;5.83;;;;;;;24.13;66.51;99889.44;5052401;28;20256;-66
2023/06/04 08:36:18;;;;;;;5.33;5.07;;;;;;;24.14;66.04;99896.47;5051519;28;20687;-68
2023/06/04 08:38:45;;;;;;;6.50;5.10;;;;;;;24.19;65.32;99903.81;5034910;28;20230;-65
2023/06/04 08:41:18;;;;;;;6.30;5.80;;;;;;;24.18;65.20;99900.28;5051689;28;20199;-65
2023/06/04 08:43:51;;;;;;;6.70;5.67;;;;;;;24.30;64.60;99906.22;5046253;28;20280;-65
2023/06/04 08:46:22;;;;;;;4.23;3.93;;;;;;;24.38;62.00;99908.38;5030709;28;20275;-65
2023/06/04 08:49:06;;;;;;;4.30;4.10;;;;;;;24.29;60.60;99912.75;5036624;28;20262;-65
2023/06/04 08:51:36;;;;;;;5.23;4.40;;;;;;;24.29;60.38;99914.66;5051966;28;20194;-67
2023/06/04 08:54:05;;;;;;;4.40;4.00;;;;;;;24.38;60.44;99919.25;5051777;28;20229;-66
2023/06/04 08:56:33;;;;;;;4.30;3.90;;;;;;;24.46;59.10;99917.91;5050884;28;20207;-68
2023/06/04 08:59:03;;;;;;;4.47;4.07;;;;;;;24.50;60.14;99922.47;5044461;28;20195;-66
2023/06/04 09:01:31;;;;;;;4.67;4.27;;;;;;;24.61;59.12;99924.13;5030967;28;20528;-66
2023/06/04 09:04:00;;;;;;;4.83;4.53;;;;;;;24.61;59.85;99918.69;5031884;28;20206;-67
2023/06/04 09:06:27;;;;;;;7.27;5.07;;;;;;;24.66;61.00;99905.06;5031732;28;20236;-66
2023/06/04 09:08:58;;;;;;;6.73;5.60;;;;;;;24.67;62.60;99912.13;5036822;28;20200;-65
2023/06/04 09:11:28;;;;;;;4.50;4.10;;;;;;;24.62;61.05;99908.59;5043126;28;20193;-64
2023/06/04 09:14:00;;;;;;;5.00;4.60;;;;;;;24.29;63.09;99904.63;5031232;28;20250;-63
2023/06/04 09:16:27;;;;;;;8.17;5.07;;;;;;;24.31;62.49;99913.31;5031911;28;20181;-65
2023/06/04 09:18:55;;;;;;;5.53;5.17;;;;;;;24.46;62.20;99907.81;5030313;28;20196;-66
2023/06/04 09:21:24;;;;;;;5.73;5.20;;;;;;;24.55;62.26;99917.03;5031022;28;20261;-67
2023/06/04 09:23:53;;;;;;;5.00;4.60;;;;;;;24.73;61.87;99919.19;5031727;28;20657;-68
2023/06/04 09:26:22;;;;;;;5.60;4.33;;;;;;;24.93;61.54;99910.94;5030373;28;20238;-67
2023/06/04 09:28:52;;;;;;;5.17;4.77;;;;;;;25.10;60.90;99918.72;5035361;28;20647;-67
2023/06/04 09:31:22;;;;;;;4.83;4.20;;;;;;;25.30;61.02;99917.81;5051255;28;20657;-66
2023/06/04 09:33:51;;;;;;;5.17;4.77;;;;;;;25.51;60.40;99913.91;5051320;28;20588;-65
2023/06/04 09:36:18;;;;;;;5.37;4.97;;;;;;;25.62;60.15;99918.16;5051485;28;20208;-66
2023/06/04 09:38:53;;;;;;;6.60;5.37;;;;;;;25.67;59.57;99915.38;5040707;28;20291;-68
2023/06/04 09:41:21;;;;;;;6.53;4.93;;;;;;;25.67;60.40;99912.66;5042008;28;20239;-71
2023/06/04 09:43:52;;;;;;;5.50;5.10;;;;;;;25.68;59.16;99912.38;5045625;28;20197;-67
2023/06/04 09:46:21;;;;;;;7.60;6.03;;;;;;;25.62;59.84;99918.16;5031668;28;20212;-66
2023/06/04 09:48:48;;;;;;;10.17;7.13;;;;;;;25.48;60.45;99917.19;5034535;28;20205;-69
2023/06/04 09:51:19;;;;;;;5.77;5.37;;;;;;;25.38;60.82;99917.22;5032284;28;20255;-66
2023/06/04 09:53:56;;;;;;;11.07;4.97;;;;;;;25.52;60.99;99919.03;5027763;28;20193;-66
2023/06/04 09:56:30;;;;;;;8.17;4.90;;;;;;;25.65;59.96;99923.03;5027180;28;20211;-67
2023/06/04 09:59:04;;;;;;;4.80;4.40;;;;;;;25.74;59.11;99918.59;5032196;28;20196;-68
2023/06/04 10:01:43;;;;;;;4.93;4.50;;;;;;;25.86;58.00;99927.22;5035845;28;20237;-68
2023/06/04 10:04:15;;;;;;;5.50;5.00;;;;;;;25.99;56.26;99934.75;5029203;28;20319;-70
2023/06/04 10:06:46;;;;;;;4.80;4.53;;;;;;;26.09;56.31;99929.25;5026349;28;20221;-70
2023/06/04 10:09:21;;;;;;;5.90;4.47;;;;;;;26.07;56.28;99934.13;5030782;28;20668;-70
2023/06/04 10:12:02;;;;;;;4.93;4.63;;;;;;;26.03;55.10;99933.09;5031521;28;20216;-72
2023/06/04 10:14:39;;;;;;;4.70;4.30;;;;;;;26.04;54.58;99918.41;5057986;28;20205;-70
2023/06/04 10:17:07;;;;;;;6.93;4.57;;;;;;;26.06;54.12;99938.78;5031496;28;20197;-70
2023/06/04 10:19:41;;;;;;;4.60;4.20;;;;;;;26.12;52.71;99936.81;5062942;28;20267;-70
2023/06/04 10:22:09;;;;;;;4.90;4.60;;;;;;;26.17;53.54;99931.34;5030168;28;20201;-71
2023/06/04 10:24:40;;;;;;;4.97;4.40;;;;;;;26.29;53.09;99931.78;5030679;28;20724;-69
2023/06/04 10:27:10;;;;;;;4.97;4.57;;;;;;;26.36;53.03;99924.03;5031114;28;20591;-69
2023/06/04 10:29:45;;;;;;;4.73;4.33;;;;;;;26.29;51.51;99929.03;5031043;28;20207;-69
2023/06/04 10:32:19;;;;;;;4.67;4.27;;;;;;;26.32;52.38;99925.72;5038398;28;20208;-69
2023/06/04 10:34:48;;;;;;;4.63;4.23;;;;;;;26.26;51.32;99924.16;5061851;28;20213;-72
2023/06/04 10:37:21;;;;;;;5.23;3.80;;;;;;;26.33;48.99;99927.38;5030183;28;20229;-71
2023/06/04 10:39:55;;;;;;;4.77;4.10;;;;;;;25.64;51.38;99913.25;5023044;28;20232;-68
2023/06/04 10:42:29;;;;;;;5.40;3.77;;;;;;;25.86;50.71;99919.06;5028258;28;20201;-69
2023/06/04 10:47:45;;;;;;;4.60;3.43;;;;;;;26.28;49.95;99916.50;5030652;28;20201;-69
2023/06/04 10:50:15;;;;;;;3.70;3.40;;;;;;;26.41;50.02;99910.41;5023798;28;20208;-70
2023/06/04 10:52:54;;;;;;;3.57;3.00;;;;;;;26.50;47.89;99908.66;5031032;28;20201;-70
2023/06/04 10:55:22;;;;;;;3.20;2.90;;;;;;;26.68;46.24;99905.19;5027428;28;20217;-68
2023/06/04 10:57:54;;;;;;;4.57;3.83;;;;;;;26.83;46.76;99910.47;5030399;28;20292;-71
2023/06/04 11:00:24;;;;;;;3.73;3.50;;;;;;;27.05;46.07;99899.81;5029230;28;20206;-69
2023/06/04 11:02:55;;;;;;;4.40;3.97;;;;;;;27.09;48.88;99888.03;5028467;28;20293;-72
2023/06/04 11:05:34;;;;;;;7.77;4.50;;;;;;;27.24;49.88;99887.03;5032176;28;20225;-67
2023/06/04 11:08:04;;;;;;;5.80;5.30;;;;;;;27.29;52.73;99890.50;5032157;28;20197;-69
2023/06/04 11:10:35;;;;;;;5.03;4.70;;;;;;;27.36;49.89;99893.63;5036110;28;20665;-67
2023/06/04 11:13:09;;;;;;;5.83;5.43;;;;;;;27.25;51.45;99899.56;5029546;28;20598;-69
2023/06/04 11:15:48;;;;;;;4.93;4.63;;;;;;;26.96;51.09;99887.94;5023251;28;20612;-68
2023/06/04 11:18:16;;;;;;;4.33;3.90;;;;;;;26.75;49.96;99905.66;5030385;28;20232;-68
2023/06/04 11:20:44;;;;;;;3.80;3.53;;;;;;;26.76;47.99;99902.66;5064138;28;20263;-68
2023/06/04 11:26:05;;;;;;;5.13;4.80;;;;;;;26.85;48.31;99911.78;5032740;28;20643;-69
2023/06/04 11:28:45;;;;;;;5.33;4.83;;;;;;;26.85;49.08;99900.06;5033571;28;20188;-70
2023/06/04 11:31:12;;;;;;;5.67;5.27;;;;;;;26.94;48.81;99898.31;5033856;28;20205;-70
2023/06/04 11:33:53;;;;;;;6.63;4.67;;;;;;;27.13;48.96;99899.16;5032896;28;20750;-69
2023/06/04 11:36:25;;;;;;;5.23;4.10;;;;;;;27.25;47.38;99899.56;5030123;28;20568;-70
2023/06/04 11:38:59;;;;;;;5.03;4.73;;;;;;;26.81;49.87;99893.56;5031774;28;20762;-70
2023/06/04 11:41:34;;;;;;;6.87;5.27;;;;;;;26.78;49.95;99894.97;5033333;28;20193;-69
2023/06/04 11:44:08;;;;;;;5.67;5.13;;;;;;;26.91;50.59;99882.56;5051352;28;20188;-71
2023/06/04 11:46:48;;;;;;;6.03;5.37;;;;;;;26.89;51.63;99888.28;5053350;28;20243;-68
2023/06/04 11:49:31;;;;;;;7.10;4.60;;;;;;;26.54;49.96;99894.13;5053305;28;20212;-69
2023/06/04 11:51:58;;;;;;;5.17;4.70;;;;;;;26.26;50.86;99888.75;5049340;28;20200;-69
2023/06/04 11:54:25;;;;;;;5.20;4.90;;;;;;;26.30;51.21;99887.88;5033141;28;20255;-69
2023/06/04 11:56:54;;;;;;;5.20;4.90;;;;;;;26.34;52.38;99882.69;5032780;28;20727;-69
2023/06/04 11:59:21;;;;;;;5.20;4.90;;;;;;;26.21;51.79;99873.25;5032110;28;20201;-72
2023/06/04 12:01:49;;;;;;;5.30;4.83;;;;;;;26.29;52.41;99888.97;5032629;28;20258;-72
2023/06/04 12:04:16;;;;;;;5.67;4.60;;;;;;;26.50;50.76;99884.13;5032542;28;20190;-73
2023/06/04 12:06:53;;;;;;;4.73;4.30;;;;;;;26.69;48.15;99896.72;5032196;28;20700;-72
2023/06/04 12:09:23;;;;;;;5.83;4.37;;;;;;;26.81;48.10;99888.13;5029993;28;20250;-71
2023/06/04 12:11:50;;;;;;;6.43;5.63;;;;;;;26.84;49.57;99893.81;5032536;28;20251;-76
2023/06/04 12:14:19;;;;;;;4.70;4.40;;;;;;;26.91;50.36;99893.47;5031727;28;20727;-70
2023/06/04 12:16:56;;;;;;;5.03;4.43;;;;;;;27.09;49.51;99889.91;5032311;28;20669;-70
2023/06/04 12:19:23;;;;;;;4.87;4.40;;;;;;;27.19;50.06;99889.78;5030032;28;20301;-70
2023/06/04 12:22:01;;;;;;;4.30;4.00;;;;;;;26.91;46.85;99896.97;5031367;28;20618;-70
2023/06/04 12:24:28;;;;;;;4.23;3.93;;;;;;;26.75;48.46;99886.56;5012811;28;20628;-77
2023/06/04 12:27:03;;;;;;;5.07;4.57;;;;;;;26.84;50.41;99893.00;5012804;28;20221;-75
2023/06/04 12:29:31;;;;;;;4.53;4.23;;;;;;;26.76;52.59;99885.47;5013022;28;20248;-75
2023/06/04 12:32:07;;;;;;;5.10;4.80;;;;;;;26.82;52.71;99895.22;5017454;28;20200;-76
2023/06/04 12:34:34;;;;;;;4.90;4.50;;;;;;;26.84;52.77;99887.53;5030645;28;20205;-75
2023/06/04 12:37:02;;;;;;;4.30;4.00;;;;;;;26.82;52.31;99900.66;5032044;28;20248;-76
2023/06/04 12:39:29;;;;;;;5.43;4.93;;;;;;;26.85;53.64;99889.16;5031635;28;20220;-77
2023/06/04 12:41:56;;;;;;;5.53;5.07;;;;;;;26.65;54.13;99894.84;5031614;28;20263;-76
2023/06/04 12:44:23;;;;;;;5.20;4.80;;;;;;;26.72;53.52;99885.25;5032030;28;20201;-77